Time;durP1;ratioP1;P1;durP2;ratioP2;P2;SDS_P1;SDS_P2;PMS_P1;PMS_P2;Temp;Humidity;BMP_temperature;BMP_pressure;BME280_temperature;BME280_humidity;BME280_pressure;Samples;Min_cycle;Max_cycle;Signal;HPM_P1;HPM_P2
2023/12/22 00:01:28;;;;;;;4.28;1.20;;;;;;;18.90;43.14;100213.59;5066068;28;20111;-67
2023/12/22 00:03:54;;;;;;;4.45;1.13;;;;;;;18.95;43.53;100236.91;5064441;28;20059;-67
2023/12/22 00:06:19;;;;;;;5.65;1.20;;;;;;;18.88;43.38;100209.41;5065105;28;20031;-66
2023/12/22 00:08:44;;;;;;;4.88;1.30;;;;;;;18.91;43.20;100209.94;5065281;28;20040;-66
2023/12/22 00:11:10;;;;;;;5.07;1.30;;;;;;;18.93;43.21;100226.50;5065873;28;20087;-66
2023/12/22 00:13:35;;;;;;;4.10;1.38;;;;;;;18.84;43.25;100216.81;5064896;28;20579;-66
2023/12/22 00:16:00;;;;;;;4.47;1.02;;;;;;;18.89;43.30;100205.81;5064005;28;20028;-66
2023/12/22 00:18:28;;;;;;;3.63;1.20;;;;;;;18.81;43.21;100203.84;5064373;28;20479;-66
2023/12/22 00:20:54;;;;;;;4.72;1.40;;;;;;;18.90;43.24;100231.22;5064475;28;20033;-66
2023/12/22 00:23:19;;;;;;;3.63;1.20;;;;;;;18.79;43.21;100235.69;5065675;28;20028;-66
2023/12/22 00:25:44;;;;;;;5.40;1.30;;;;;;;18.85;43.39;100250.16;5066188;28;20437;-67
2023/12/22 00:28:10;;;;;;;3.65;1.10;;;;;;;18.78;43.14;100254.31;5066306;28;20032;-66
2023/12/22 00:30:35;;;;;;;5.72;1.40;;;;;;;18.84;43.25;100254.59;5066607;28;20059;-66
2023/12/22 00:33:00;;;;;;;4.38;1.17;;;;;;;18.75;43.29;100254.59;5066318;28;20036;-66
2023/12/22 00:35:25;;;;;;;4.32;1.27;;;;;;;18.74;43.17;100264.31;5066279;28;20477;-67
2023/12/22 00:37:51;;;;;;;4.53;1.25;;;;;;;18.82;43.19;100275.00;5066593;28;20039;-66
2023/12/22 00:40:16;;;;;;;3.63;1.15;;;;;;;18.73;43.22;100259.19;5065805;28;20036;-65
2023/12/22 00:42:41;;;;;;;5.47;1.30;;;;;;;18.78;42.86;100278.06;5066234;28;20112;-66
2023/12/22 00:45:07;;;;;;;5.22;1.25;;;;;;;18.71;42.97;100258.47;5066402;28;20040;-65
2023/12/22 00:47:35;;;;;;;4.38;1.17;;;;;;;18.79;42.85;100269.19;5049704;28;20045;-66
2023/12/22 00:50:00;;;;;;;5.18;1.27;;;;;;;18.75;42.98;100259.88;5069576;28;20036;-65
2023/12/22 00:52:26;;;;;;;5.00;1.10;;;;;;;18.78;42.95;100273.59;5068609;28;20303;-67
2023/12/22 00:54:51;;;;;;;5.97;1.25;;;;;;;18.72;42.85;100266.25;5068597;28;20518;-66
2023/12/22 00:57:17;;;;;;;5.00;1.17;;;;;;;18.69;43.18;100263.88;5068073;28;20672;-66
2023/12/22 00:59:47;;;;;;;3.92;1.02;;;;;;;18.74;42.95;100281.94;5068539;28;20078;-66
2023/12/22 01:02:13;;;;;;;4.30;1.17;;;;;;;18.71;43.11;100275.16;5067461;28;20029;-67
2023/12/22 01:04:38;;;;;;;4.80;1.10;;;;;;;18.71;42.99;100267.25;5068316;28;20035;-66
2023/12/22 01:07:04;;;;;;;4.38;1.13;;;;;;;18.69;42.82;100277.09;5068828;28;20028;-66
2023/12/22 01:09:29;;;;;;;4.40;1.10;;;;;;;18.61;42.83;100283.09;5069047;28;20036;-66
2023/12/22 01:11:54;;;;;;;3.58;1.25;;;;;;;18.70;42.86;100272.66;5070100;28;20063;-66
2023/12/22 01:14:19;;;;;;;5.35;1.35;;;;;;;18.59;42.77;100249.91;5069070;28;20499;-67
2023/12/22 01:16:45;;;;;;;5.40;1.30;;;;;;;18.67;42.74;100258.78;5069957;28;20036;-66
2023/12/22 01:19:10;;;;;;;4.67;1.20;;;;;;;18.63;42.06;100262.66;5069815;28;20162;-66
2023/12/22 01:21:35;;;;;;;5.03;1.35;;;;;;;18.66;42.06;100265.03;5069590;28;20269;-66
2023/12/22 01:24:00;;;;;;;3.60;1.20;;;;;;;18.65;42.14;100265.16;5068527;28;20753;-66
2023/12/22 01:26:26;;;;;;;6.30;1.40;;;;;;;18.63;42.13;100277.69;5068743;28;20048;-66
2023/12/22 01:28:51;;;;;;;5.50;1.70;;;;;;;18.56;42.28;100272.13;5068938;28;20082;-66
2023/12/22 01:31:16;;;;;;;7.30;1.50;;;;;;;18.59;42.29;100289.47;5068270;28;20272;-67
2023/12/22 01:33:42;;;;;;;4.90;1.30;;;;;;;18.61;42.15;100301.56;5068519;28;20038;-66
2023/12/22 01:36:07;;;;;;;4.97;1.35;;;;;;;18.52;41.99;100283.09;5068157;28;20039;-66
2023/12/22 01:38:32;;;;;;;6.43;1.40;;;;;;;18.54;42.08;100283.81;5068180;28;20119;-66
2023/12/22 01:40:58;;;;;;;5.47;1.40;;;;;;;18.54;42.09;100295.19;5069126;28;20063;-66
2023/12/22 01:43:23;;;;;;;7.07;1.38;;;;;;;18.57;41.86;100299.34;5068904;28;20067;-66
2023/12/22 01:45:52;;;;;;;4.68;1.42;;;;;;;18.52;41.75;100291.00;5069230;28;20460;-66
2023/12/22 01:48:17;;;;;;;5.47;1.27;;;;;;;18.51;41.84;100289.34;5069317;28;20052;-66
2023/12/22 01:50:44;;;;;;;6.32;1.55;;;;;;;18.57;41.70;100308.09;5068466;28;20393;-66
2023/12/22 01:53:10;;;;;;;4.70;1.45;;;;;;;18.55;41.76;100296.00;5068952;28;20036;-66
2023/12/22 01:55:35;;;;;;;3.88;1.00;;;;;;;18.56;41.92;100313.50;5068693;28;20556;-66
2023/12/22 01:58:01;;;;;;;6.72;1.40;;;;;;;18.45;41.85;100299.50;5068434;28;20112;-66
2023/12/22 02:00:26;;;;;;;5.35;1.40;;;;;;;18.53;41.90;100309.34;5068795;28;20071;-66
2023/12/22 02:02:52;;;;;;;4.05;1.13;;;;;;;18.48;41.79;100314.22;5065672;28;20043;-66
2023/12/22 02:05:18;;;;;;;5.05;1.48;;;;;;;18.52;41.49;100314.75;5068165;28;20029;-66
2023/12/22 02:07:43;;;;;;;6.15;1.52;;;;;;;18.43;41.71;100303.25;5067751;28;20055;-66
2023/12/22 02:10:09;;;;;;;5.82;1.23;;;;;;;18.52;41.63;100326.16;5068406;28;20063;-66
2023/12/22 02:12:36;;;;;;;6.43;1.60;;;;;;;18.42;41.56;100304.22;5068583;28;20071;-66
2023/12/22 02:15:01;;;;;;;5.22;1.40;;;;;;;18.42;41.37;100310.34;5067720;28;20036;-66
2023/12/22 02:17:36;;;;;;;5.28;1.40;;;;;;;18.45;41.38;100290.75;5068426;28;20037;-67
2023/12/22 02:20:02;;;;;;;7.05;2.00;;;;;;;18.39;41.42;100278.09;5067782;28;20064;-66
2023/12/22 02:22:29;;;;;;;5.35;1.40;;;;;;;18.48;41.42;100291.31;5068327;28;20469;-66
2023/12/22 02:24:54;;;;;;;5.63;1.30;;;;;;;18.37;41.57;100283.53;5067179;28;20024;-66
2023/12/22 02:27:40;;;;;;;4.87;1.50;;;;;;;18.43;41.46;100287.41;5068816;28;20110;-66
2023/12/22 02:30:13;;;;;;;5.50;1.30;;;;;;;18.43;41.39;100313.81;5068179;28;20289;-66
2023/12/22 02:32:42;;;;;;;4.25;1.25;;;;;;;18.37;41.18;100301.97;5067920;28;20033;-66
2023/12/22 02:35:16;;;;;;;5.93;1.35;;;;;;;18.45;41.10;100330.31;5068106;28;20043;-66
2023/12/22 02:37:42;;;;;;;;;;;;;;;18.42;41.20;100334.09;5068535;28;20036;-67
2023/12/22 02:40:09;;;;;;;5.25;1.50;;;;;;;18.39;41.18;100351.97;5067991;28;20345;-67
2023/12/22 02:42:36;;;;;;;4.07;1.42;;;;;;;18.36;41.23;100352.25;5067654;28;20035;-66
2023/12/22 02:45:03;;;;;;;5.10;1.40;;;;;;;18.33;41.59;100332.28;5066743;28;20078;-66
2023/12/22 02:47:28;;;;;;;4.70;1.45;;;;;;;18.31;41.48;100315.75;5066966;28;20076;-66
2023/12/22 02:49:54;;;;;;;4.50;1.25;;;;;;;18.29;41.31;100312.41;5067104;28;20076;-66
2023/12/22 02:52:19;;;;;;;5.47;1.38;;;;;;;18.39;41.27;100339.63;5066807;28;20071;-67
2023/12/22 02:54:46;;;;;;;6.75;1.58;;;;;;;18.30;41.31;100308.81;5067461;28;20039;-66
2023/12/22 02:57:12;;;;;;;5.43;1.20;;;;;;;18.37;41.04;100324.91;5067575;28;20032;-66
2023/12/22 02:59:37;;;;;;;7.05;1.52;;;;;;;18.38;41.04;100318.66;5067866;28;20044;-66
2023/12/22 03:02:03;;;;;;;5.80;1.40;;;;;;;18.38;41.21;100310.75;5066465;28;20028;-66
2023/12/22 03:04:28;;;;;;;5.28;1.60;;;;;;;18.38;41.08;100308.13;5066654;28;20629;-66
2023/12/22 03:06:53;;;;;;;6.32;1.48;;;;;;;18.30;41.19;100299.06;5067507;28;20468;-66
2023/12/22 03:09:18;;;;;;;5.93;1.48;;;;;;;18.34;41.18;100306.72;5066442;28;20037;-66
2023/12/22 03:11:44;;;;;;;4.03;1.40;;;;;;;18.26;41.04;100296.84;5067576;28;20033;-66
2023/12/22 03:14:10;;;;;;;4.60;1.27;;;;;;;18.31;41.22;100297.28;5067705;28;20032;-66
2023/12/22 03:16:35;;;;;;;7.53;1.60;;;;;;;18.23;41.06;100276.88;5067316;28;20031;-66
2023/12/22 03:19:00;;;;;;;4.38;1.20;;;;;;;18.28;41.25;100289.66;5067140;28;20028;-66
2023/12/22 03:21:25;;;;;;;5.07;1.48;;;;;;;18.33;40.97;100307.72;5066832;28;20060;-67
2023/12/22 03:23:51;;;;;;;8.13;1.77;;;;;;;18.31;41.13;100294.66;5066524;28;20028;-66
2023/12/22 03:26:16;;;;;;;4.50;1.33;;;;;;;18.30;40.92;100285.88;5067330;28;20024;-66
2023/12/22 03:28:41;;;;;;;3.50;1.30;;;;;;;18.23;41.32;100282.16;5067147;28;20261;-66
2023/12/22 03:31:07;;;;;;;5.65;1.83;;;;;;;18.26;41.34;100287.16;5066245;28;20753;-66
2023/12/22 03:33:33;;;;;;;7.35;1.67;;;;;;;18.22;41.52;100280.47;5067139;28;20024;-66
2023/12/22 03:35:58;;;;;;;5.38;1.20;;;;;;;18.21;41.05;100277.97;5066383;28;20043;-66
2023/12/22 03:38:23;;;;;;;6.13;1.48;;;;;;;18.28;41.35;100281.75;5067264;28;20044;-66
2023/12/22 03:40:48;;;;;;;7.15;1.60;;;;;;;18.20;41.21;100285.06;5067006;28;20108;-66
2023/12/22 03:43:14;;;;;;;5.38;1.55;;;;;;;18.21;41.25;100275.34;5066832;28;20028;-67
2023/12/22 03:45:39;;;;;;;5.40;1.30;;;;;;;18.24;41.26;100280.34;5066480;28;20029;-66
2023/12/22 03:48:05;;;;;;;6.03;1.40;;;;;;;18.18;41.04;100279.06;5066445;28;20489;-66
2023/12/22 03:50:30;;;;;;;6.80;1.45;;;;;;;18.20;40.99;100286.84;5066695;28;20122;-66
2023/12/22 03:52:56;;;;;;;6.10;1.70;;;;;;;18.26;41.12;100302.13;5066822;28;20380;-66
2023/12/22 03:55:21;;;;;;;5.15;1.30;;;;;;;18.24;41.10;100301.44;5066040;28;20301;-67
2023/12/22 03:57:46;;;;;;;3.90;1.17;;;;;;;18.25;41.13;100297.84;5066867;28;20036;-66
2023/12/22 04:00:13;;;;;;;4.30;1.43;;;;;;;18.19;40.92;100282.56;5066309;28;20417;-66
2023/12/22 04:02:39;;;;;;;4.70;1.20;;;;;;;18.25;41.29;100300.47;5065012;28;20277;-66
2023/12/22 04:05:05;;;;;;;4.57;1.33;;;;;;;18.23;41.08;100303.25;5065606;28;20037;-66
2023/12/22 04:07:30;;;;;;;4.60;1.25;;;;;;;18.18;41.16;100294.06;5066779;28;20042;-66
2023/12/22 04:09:56;;;;;;;5.32;1.20;;;;;;;18.23;41.32;100324.34;5066050;28;20063;-66
2023/12/22 04:12:21;;;;;;;6.03;1.35;;;;;;;18.22;41.23;100320.03;5065715;28;20162;-66
2023/12/22 04:14:46;;;;;;;5.22;1.23;;;;;;;18.22;41.04;100314.75;5065884;28;20033;-66
2023/12/22 04:17:11;;;;;;;5.30;1.23;;;;;;;18.16;41.00;100311.84;5066425;28;20036;-64
2023/12/22 04:19:37;;;;;;;4.93;1.40;;;;;;;18.21;41.10;100315.72;5066621;28;20028;-64
2023/12/22 04:22:02;;;;;;;4.53;1.40;;;;;;;18.17;41.15;100326.72;5065615;28;20086;-65
2023/12/22 04:24:28;;;;;;;5.88;1.38;;;;;;;18.19;41.15;100337.94;5066481;28;20031;-64
2023/12/22 04:26:53;;;;;;;8.63;1.75;;;;;;;18.11;41.16;100317.53;5065845;28;20488;-65
2023/12/22 04:29:18;;;;;;;4.75;1.50;;;;;;;18.18;41.30;100337.09;5065400;28;20076;-65
2023/12/22 04:31:44;;;;;;;6.03;1.42;;;;;;;18.19;41.07;100337.94;5065854;28;20039;-65
2023/12/22 04:34:09;;;;;;;6.30;1.55;;;;;;;18.11;41.05;100333.34;5065819;28;20079;-64
2023/12/22 04:36:35;;;;;;;5.00;1.40;;;;;;;18.10;41.32;100326.41;5065807;28;20127;-65
2023/12/22 04:39:00;;;;;;;6.10;1.50;;;;;;;18.17;41.08;100343.38;5066072;28;20058;-65
2023/12/22 04:41:26;;;;;;;6.57;1.30;;;;;;;18.17;41.22;100346.00;5065603;28;20428;-65
2023/12/22 04:43:51;;;;;;;6.07;1.45;;;;;;;18.16;41.09;100346.97;5065240;28;20121;-66
2023/12/22 04:46:16;;;;;;;6.70;1.60;;;;;;;18.17;41.07;100358.38;5065114;28;20050;-66
2023/12/22 04:48:41;;;;;;;4.88;1.30;;;;;;;18.16;40.93;100346.97;5065118;28;20293;-66
2023/12/22 04:51:07;;;;;;;6.45;1.75;;;;;;;18.07;40.91;100330.16;5064945;28;20040;-65
2023/12/22 04:53:32;;;;;;;6.95;1.77;;;;;;;18.16;41.01;100346.13;5065471;28;20393;-65
2023/12/22 04:55:57;;;;;;;4.80;1.30;;;;;;;18.04;41.04;100324.31;5066123;28;20070;-65
2023/12/22 04:58:23;;;;;;;5.40;1.60;;;;;;;18.15;40.94;100331.28;5065846;28;20055;-65
2023/12/22 05:00:49;;;;;;;5.03;1.25;;;;;;;18.05;41.11;100318.91;5065942;28;20040;-65
2023/12/22 05:03:14;;;;;;;5.60;1.40;;;;;;;18.01;40.84;100335.97;5064639;28;20071;-65
2023/12/22 05:05:39;;;;;;;7.03;2.17;;;;;;;18.13;40.96;100366.53;5065502;28;20029;-65
2023/12/22 05:08:05;;;;;;;5.57;1.52;;;;;;;18.02;40.88;100344.72;5065820;28;20358;-65
2023/12/22 05:10:30;;;;;;;5.20;1.50;;;;;;;18.12;40.85;100369.31;5065814;28;20028;-65
2023/12/22 05:12:56;;;;;;;6.15;1.60;;;;;;;18.12;40.83;100364.88;5065500;28;20032;-65
2023/12/22 05:15:21;;;;;;;6.68;1.40;;;;;;;18.09;41.20;100359.88;5065428;28;20024;-65
2023/12/22 05:17:46;;;;;;;4.32;1.10;;;;;;;18.02;41.01;100335.00;5065992;28;20025;-65
2023/12/22 05:20:11;;;;;;;4.93;1.48;;;;;;;18.11;41.17;100336.81;5066087;28;20032;-65
2023/12/22 05:22:37;;;;;;;6.55;1.55;;;;;;;18.11;41.12;100336.81;5066011;28;20033;-65
2023/12/22 05:25:02;;;;;;;6.85;1.45;;;;;;;18.03;41.40;100343.75;5065136;28;20032;-65
2023/12/22 05:27:28;;;;;;;6.25;1.50;;;;;;;18.01;41.49;100351.81;5064995;28;20115;-65
2023/12/22 05:29:53;;;;;;;5.78;1.63;;;;;;;18.09;41.29;100367.78;5064906;28;20032;-65
2023/12/22 05:32:18;;;;;;;6.20;1.90;;;;;;;17.97;41.44;100350.41;5064949;28;20075;-66
2023/12/22 05:34:43;;;;;;;6.55;1.73;;;;;;;18.04;41.70;100348.03;5068007;28;20033;-66
2023/12/22 05:37:09;;;;;;;7.30;1.90;;;;;;;18.10;41.64;100342.22;5068543;28;20029;-65
2023/12/22 05:39:34;;;;;;;5.72;1.38;;;;;;;18.01;41.63;100341.25;5068483;28;20764;-65
2023/12/22 05:41:59;;;;;;;5.90;1.48;;;;;;;18.07;41.56;100353.91;5068970;28;20036;-65
2023/12/22 05:44:29;;;;;;;5.63;1.75;;;;;;;17.99;41.69;100339.72;5069017;28;20461;-65
2023/12/22 05:46:54;;;;;;;7.03;1.83;;;;;;;17.99;41.54;100339.72;5068948;28;20079;-65
2023/12/22 05:49:19;;;;;;;6.55;1.65;;;;;;;17.99;41.72;100329.16;5068753;28;20037;-66
2023/12/22 05:51:45;;;;;;;8.32;1.92;;;;;;;17.96;41.68;100327.66;5068583;28;20025;-65
2023/12/22 05:54:11;;;;;;;7.65;1.63;;;;;;;17.96;41.94;100348.75;5068773;28;20079;-66
2023/12/22 05:56:37;;;;;;;5.38;1.30;;;;;;;17.94;41.76;100343.59;5068335;28;20114;-66
2023/12/22 05:59:03;;;;;;;9.05;2.40;;;;;;;18.05;41.95;100350.53;5066617;28;20064;-65
2023/12/22 06:01:28;;;;;;;7.50;1.90;;;;;;;18.03;41.82;100351.66;5066211;28;20522;-66
2023/12/22 06:03:54;;;;;;;7.13;1.80;;;;;;;18.02;41.91;100339.44;5066231;28;20044;-66
2023/12/22 06:06:20;;;;;;;5.90;1.60;;;;;;;18.07;42.03;100340.72;5067785;28;20033;-65
2023/12/22 06:08:45;;;;;;;6.45;1.88;;;;;;;17.99;42.21;100329.16;5067753;28;20102;-66
2023/12/22 06:11:10;;;;;;;8.02;1.60;;;;;;;18.01;42.18;100324.59;5068281;28;20036;-65
2023/12/22 06:13:35;;;;;;;5.88;1.70;;;;;;;18.10;42.12;100335.16;5068977;28;20362;-66
2023/12/22 06:16:01;;;;;;;6.68;1.92;;;;;;;18.10;42.40;100329.03;5068533;28;20036;-66
2023/12/22 06:18:26;;;;;;;4.93;1.55;;;;;;;18.16;42.23;100344.31;5068427;28;20036;-66
2023/12/22 06:20:52;;;;;;;7.47;2.00;;;;;;;18.17;42.21;100335.44;5068936;28;20074;-65
2023/12/22 06:23:17;;;;;;;5.20;1.90;;;;;;;18.13;42.61;100324.34;5050302;28;20120;-66
2023/12/22 06:25:42;;;;;;;7.63;1.80;;;;;;;18.14;42.50;100325.19;5068456;28;20990;-65
2023/12/22 06:28:07;;;;;;;5.75;1.40;;;;;;;18.25;42.47;100335.59;5068619;28;20024;-66
2023/12/22 06:30:33;;;;;;;5.20;1.52;;;;;;;18.26;42.76;100326.72;5068354;28;20029;-65
2023/12/22 06:32:58;;;;;;;6.53;1.70;;;;;;;18.23;42.70;100319.09;5050626;28;20035;-66
2023/12/22 06:35:25;;;;;;;7.27;1.93;;;;;;;18.30;42.56;100336.00;5068392;28;20697;-65
2023/12/22 06:37:54;;;;;;;7.15;1.85;;;;;;;18.38;42.39;100339.78;5068034;28;20312;-65
2023/12/22 06:40:20;;;;;;;5.80;1.65;;;;;;;18.33;42.59;100334.91;5068517;28;20038;-65
2023/12/22 06:42:45;;;;;;;7.80;1.75;;;;;;;18.42;42.34;100357.81;5067418;28;20025;-66
2023/12/22 06:45:10;;;;;;;5.93;1.73;;;;;;;18.36;42.68;100349.59;5066062;28;20063;-66
2023/12/22 06:47:36;;;;;;;6.25;1.90;;;;;;;18.46;42.57;100361.00;5048922;28;20739;-65
2023/12/22 06:50:01;;;;;;;6.47;1.73;;;;;;;18.43;42.46;100348.09;5066419;28;20473;-66
2023/12/22 06:52:27;;;;;;;6.95;1.70;;;;;;;18.51;42.37;100358.78;5067014;28;20040;-65
2023/12/22 06:54:52;;;;;;;6.55;1.73;;;;;;;18.49;42.49;100361.56;5067347;28;21064;-66
2023/12/22 06:57:17;;;;;;;6.23;1.70;;;;;;;18.43;42.62;100338.38;5067475;28;20028;-66
2023/12/22 06:59:43;;;;;;;6.00;1.58;;;;;;;18.56;42.25;100350.47;5067930;28;20293;-66
2023/12/22 07:02:08;;;;;;;6.10;1.77;;;;;;;18.56;42.58;100353.91;5067200;28;20461;-66
2023/12/22 07:04:33;;;;;;;7.00;1.80;;;;;;;18.57;42.43;100352.97;5067630;28;20043;-65
2023/12/22 07:06:59;;;;;;;6.47;1.83;;;;;;;18.51;42.36;100342.13;5067701;28;20032;-66
2023/12/22 07:09:24;;;;;;;6.03;1.77;;;;;;;18.58;42.50;100353.78;5067233;28;20300;-66
2023/12/22 07:11:50;;;;;;;7.95;1.98;;;;;;;18.58;42.49;100352.00;5067718;28;20044;-66
2023/12/22 07:14:16;;;;;;;6.53;1.83;;;;;;;18.56;42.33;100351.28;5067571;28;20036;-66
2023/12/22 07:16:42;;;;;;;6.97;2.00;;;;;;;18.59;42.56;100350.19;5067461;28;20036;-66
2023/12/22 07:19:07;;;;;;;5.82;1.90;;;;;;;18.51;42.45;100328.94;5067404;28;20038;-65
2023/12/22 07:21:32;;;;;;;6.88;1.65;;;;;;;18.52;42.47;100335.88;5048830;28;20038;-66
2023/12/22 07:23:58;;;;;;;8.95;2.28;;;;;;;18.53;42.34;100346.28;5066802;28;20039;-67
2023/12/22 07:26:24;;;;;;;8.55;2.08;;;;;;;18.53;42.42;100335.72;5066078;28;20033;-65
2023/12/22 07:28:49;;;;;;;8.15;2.03;;;;;;;18.58;42.56;100335.31;5066083;28;20488;-65
2023/12/22 07:31:15;;;;;;;8.85;2.50;;;;;;;18.62;42.76;100340.16;5065653;28;20597;-64
2023/12/22 07:33:40;;;;;;;7.30;2.33;;;;;;;18.55;42.06;100331.16;5066388;28;20041;-64
2023/12/22 07:36:06;;;;;;;6.78;2.28;;;;;;;18.52;42.18;100315.59;5065765;28;20044;-66
2023/12/22 07:38:32;;;;;;;8.02;1.80;;;;;;;18.63;42.41;100348.94;5066223;28;20036;-65
2023/12/22 07:40:57;;;;;;;7.40;2.22;;;;;;;18.53;42.12;100330.44;5065959;28;20036;-65
2023/12/22 07:43:23;;;;;;;8.05;2.20;;;;;;;18.53;42.48;100321.69;5063563;28;20397;-66
2023/12/22 07:45:50;;;;;;;8.15;2.40;;;;;;;18.62;42.49;100341.97;5064602;28;20044;-66
2023/12/22 07:48:15;;;;;;;8.48;2.42;;;;;;;18.57;42.57;100331.03;5064660;28;20412;-66
2023/12/22 07:50:42;;;;;;;10.57;2.50;;;;;;;18.59;42.35;100329.88;5065317;28;20107;-66
2023/12/22 07:53:08;;;;;;;8.68;2.67;;;;;;;18.64;42.65;100332.97;5065569;28;20060;-65
2023/12/22 07:55:33;;;;;;;9.43;2.70;;;;;;;18.68;42.49;100331.69;5065274;28;20401;-67
2023/12/22 07:57:58;;;;;;;8.18;2.60;;;;;;;18.62;42.57;100324.34;5065073;28;20033;-66
2023/12/22 08:00:24;;;;;;;7.65;2.42;;;;;;;18.71;42.70;100343.78;5065777;28;20159;-66
2023/12/22 08:02:49;;;;;;;9.47;2.47;;;;;;;18.63;42.52;100325.19;5064177;28;20025;-66
2023/12/22 08:05:15;;;;;;;7.97;2.53;;;;;;;18.71;42.64;100342.94;5063119;28;20883;-66
2023/12/22 08:07:40;;;;;;;11.52;2.40;;;;;;;18.71;42.71;100341.16;5065083;28;20527;-66
2023/12/22 08:10:06;;;;;;;10.15;2.65;;;;;;;18.68;42.54;100334.34;5063180;28;20029;-66
2023/12/22 08:12:32;;;;;;;8.85;2.33;;;;;;;18.72;42.47;100350.72;5065252;28;20043;-65
2023/12/22 08:14:58;;;;;;;7.57;2.10;;;;;;;18.65;42.54;100333.78;5063043;28;20064;-65
2023/12/22 08:17:23;;;;;;;8.23;2.75;;;;;;;18.66;43.03;100327.53;5064347;28;20102;-66
2023/12/22 08:19:49;;;;;;;10.52;2.85;;;;;;;18.77;42.88;100353.78;5064797;28;20025;-66
2023/12/22 08:22:14;;;;;;;9.32;2.53;;;;;;;18.79;42.85;100348.38;5064485;28;20032;-66
2023/12/22 08:24:41;;;;;;;6.47;1.80;;;;;;;18.71;42.98;100330.59;5064716;28;20124;-65
2023/12/22 08:27:07;;;;;;;9.68;2.10;;;;;;;18.80;43.07;100347.38;5065286;28;20116;-65
2023/12/22 08:29:33;;;;;;;6.78;1.85;;;;;;;18.72;43.05;100334.88;5065106;28;20032;-66
2023/12/22 08:31:58;;;;;;;9.43;2.35;;;;;;;18.75;43.21;100341.69;5064245;28;20032;-66
2023/12/22 08:34:24;;;;;;;7.05;1.77;;;;;;;18.63;43.17;100322.53;5065054;28;20028;-65
2023/12/22 08:36:49;;;;;;;7.18;2.28;;;;;;;18.80;43.12;100344.75;5064833;28;20036;-66
2023/12/22 08:39:14;;;;;;;8.52;2.10;;;;;;;18.81;43.14;100346.41;5064956;28;20036;-64
2023/12/22 08:41:40;;;;;;;7.07;1.88;;;;;;;18.80;43.21;100345.59;5064432;28;20112;-66
2023/12/22 08:44:06;;;;;;;7.57;1.85;;;;;;;18.81;43.27;100343.78;5064787;28;20043;-66
2023/12/22 08:46:32;;;;;;;8.77;2.33;;;;;;;18.70;43.34;100315.72;5064714;28;20032;-65
2023/12/22 08:48:59;;;;;;;5.85;1.80;;;;;;;18.70;43.21;100315.72;5064301;28;20119;-66
2023/12/22 08:51:24;;;;;;;6.43;2.00;;;;;;;18.78;43.20;100333.50;5064679;28;20167;-66
2023/12/22 08:53:50;;;;;;;8.10;2.00;;;;;;;18.75;43.43;100339.06;5064166;28;20540;-67
2023/12/22 08:56:16;;;;;;;6.28;1.73;;;;;;;18.79;43.13;100343.09;5064540;28;20481;-66
2023/12/22 08:58:42;;;;;;;6.10;1.73;;;;;;;18.70;43.54;100318.34;5065163;28;20116;-66
2023/12/22 09:01:07;;;;;;;6.85;1.67;;;;;;;18.79;43.70;100340.44;5062674;28;20124;-65
2023/12/22 09:03:33;;;;;;;6.20;1.67;;;;;;;18.73;43.78;100336.56;5062326;28;20068;-66
2023/12/22 09:05:59;;;;;;;7.70;1.70;;;;;;;18.80;43.73;100326.25;5061062;28;20071;-66
2023/12/22 09:08:24;;;;;;;6.25;1.58;;;;;;;18.79;44.08;100332.53;5064741;28;20468;-68
2023/12/22 09:10:50;;;;;;;8.38;2.10;;;;;;;18.68;43.95;100307.94;5066441;28;20037;-69
2023/12/22 09:13:15;;;;;;;6.00;1.77;;;;;;;18.80;43.82;100334.19;5066649;28;20112;-65
2023/12/22 09:15:41;;;;;;;5.45;1.70;;;;;;;18.79;43.83;100328.06;5067945;28;20273;-66
2023/12/22 09:18:06;;;;;;;5.80;1.60;;;;;;;18.79;43.70;100330.72;5066269;28;20059;-65
2023/12/22 09:20:32;;;;;;;6.80;1.77;;;;;;;18.76;43.86;100325.72;5067080;28;20032;-67
2023/12/22 09:22:57;;;;;;;4.82;1.70;;;;;;;18.78;43.75;100329.03;5068430;28;20032;-67
2023/12/22 09:25:23;;;;;;;7.05;2.08;;;;;;;18.77;43.86;100324.75;5068257;28;20056;-67
2023/12/22 09:27:49;;;;;;;5.78;1.50;;;;;;;18.72;43.78;100320.84;5068348;28;20035;-66
2023/12/22 09:30:14;;;;;;;5.83;1.37;;;;;;;18.76;43.77;100331.00;5068187;28;20484;-67
2023/12/22 09:32:39;;;;;;;5.53;1.30;;;;;;;18.65;43.70;100310.03;5050139;28;20273;-65
2023/12/22 09:35:05;;;;;;;7.87;2.10;;;;;;;18.73;43.94;100336.56;5068080;28;20380;-66
2023/12/22 09:37:30;;;;;;;5.45;1.40;;;;;;;18.74;43.86;100316.25;5068464;28;20273;-66
2023/12/22 09:39:56;;;;;;;6.05;1.65;;;;;;;18.72;43.87;100307.66;5068162;28;20028;-67
2023/12/22 09:42:24;;;;;;;4.75;1.30;;;;;;;18.71;43.93;100313.91;5068567;28;20031;-66
2023/12/22 09:44:52;;;;;;;4.40;1.30;;;;;;;18.62;43.87;100297.13;5067861;28;20106;-67
2023/12/22 09:47:19;;;;;;;4.45;1.45;;;;;;;18.70;44.00;100306.97;5067284;28;20041;-66
2023/12/22 09:49:46;;;;;;;5.60;1.20;;;;;;;18.62;44.04;100290.03;5067833;28;20036;-67
2023/12/22 09:52:13;;;;;;;5.93;1.20;;;;;;;18.60;43.86;100299.06;5067930;28;20020;-66
2023/12/22 09:54:40;;;;;;;4.47;1.10;;;;;;;18.71;43.80;100322.66;5068258;28;20056;-67
2023/12/22 09:57:06;;;;;;;5.07;1.30;;;;;;;18.71;43.83;100313.91;5066868;28;20024;-67
2023/12/22 09:59:33;;;;;;;4.05;1.20;;;;;;;18.62;44.09;100302.41;5059499;28;20062;-67
2023/12/22 10:02:02;;;;;;;4.80;1.30;;;;;;;18.69;43.81;100308.75;5065985;28;20103;-67
2023/12/22 10:04:27;;;;;;;5.50;1.73;;;;;;;18.61;43.71;100293.66;5067103;28;20029;-65
2023/12/22 10:06:57;;;;;;;3.78;1.00;;;;;;;18.61;44.00;100282.25;5067440;28;20074;-66
2023/12/22 10:09:23;;;;;;;5.00;1.08;;;;;;;18.65;44.00;100291.56;5067696;28;20037;-66
2023/12/22 10:11:51;;;;;;;5.53;1.60;;;;;;;18.62;43.87;100289.19;5067164;28;20350;-67
2023/12/22 10:14:22;;;;;;;3.50;1.02;;;;;;;18.66;43.85;100296.69;5068491;28;20033;-67
2023/12/22 10:16:49;;;;;;;3.72;1.00;;;;;;;18.70;44.04;100299.06;5067725;28;20039;-66
2023/12/22 10:19:14;;;;;;;3.38;1.10;;;;;;;18.70;44.27;100306.97;5066562;28;20396;-66
2023/12/22 10:21:40;;;;;;;4.57;1.30;;;;;;;18.59;44.00;100279.75;5068033;28;20036;-68
2023/12/22 10:24:05;;;;;;;4.27;1.00;;;;;;;18.66;44.23;100315.19;5068197;28;20032;-66
2023/12/22 10:26:30;;;;;;;3.73;0.83;;;;;;;18.68;44.28;100307.13;5068088;28;20831;-67
2023/12/22 10:28:56;;;;;;;3.67;0.80;;;;;;;18.71;44.02;100319.19;5045237;28;20323;-65
2023/12/22 10:31:22;;;;;;;4.90;1.30;;;;;;;18.70;44.45;100312.25;5063615;28;20044;-66
2023/12/22 10:33:48;;;;;;;3.65;0.90;;;;;;;18.70;44.64;100310.44;5066643;28;20037;-68
2023/12/22 10:36:14;;;;;;;4.03;1.10;;;;;;;18.71;44.62;100312.13;5067048;28;20032;-66
2023/12/22 10:38:39;;;;;;;3.28;1.00;;;;;;;18.60;44.53;100286.69;5067200;28;20075;-66
2023/12/22 10:41:07;;;;;;;4.40;1.00;;;;;;;18.73;44.43;100312.78;5067318;28;20071;-67
2023/12/22 10:43:39;;;;;;;3.30;0.98;;;;;;;18.66;44.71;100309.06;5064182;28;20044;-67
2023/12/22 10:46:07;;;;;;;3.47;0.88;;;;;;;18.78;44.81;100301.81;5061617;28;20032;-67
2023/12/22 10:48:33;;;;;;;3.10;0.90;;;;;;;18.79;44.74;100314.88;5066901;28;20072;-67
2023/12/22 10:50:58;;;;;;;4.75;1.00;;;;;;;18.80;44.67;100313.91;5067025;28;20074;-65
2023/12/22 10:53:24;;;;;;;4.55;1.30;;;;;;;18.77;44.51;100308.06;5066749;28;20354;-67
2023/12/22 10:55:50;;;;;;;4.22;1.20;;;;;;;18.76;44.66;100309.88;5067002;28;20439;-66
2023/12/22 10:58:16;;;;;;;4.60;0.90;;;;;;;18.79;44.73;100304.31;5066926;28;20470;-67
2023/12/22 11:00:45;;;;;;;3.42;0.90;;;;;;;18.76;44.88;100296.69;5066937;28;20032;-66
2023/12/22 11:03:15;;;;;;;2.22;0.77;;;;;;;18.77;44.50;100290.44;5065313;28;20048;-66
2023/12/22 11:05:45;;;;;;;3.42;0.85;;;;;;;18.89;44.81;100327.25;5060241;28;20039;-67
2023/12/22 11:08:11;;;;;;;3.17;0.75;;;;;;;18.79;44.77;100296.41;5064149;28;20163;-66
2023/12/22 11:10:41;;;;;;;3.85;1.15;;;;;;;18.87;44.88;100302.78;5065244;28;20107;-67
2023/12/22 11:13:08;;;;;;;2.80;0.80;;;;;;;18.87;44.61;100302.78;5065444;28;20069;-66
2023/12/22 11:15:35;;;;;;;3.55;0.93;;;;;;;18.83;44.77;100297.78;5066527;28;20039;-66
2023/12/22 11:18:01;;;;;;;2.65;0.70;;;;;;;18.79;44.46;100296.41;5066664;28;20074;-65